Time;durP1;ratioP1;P1;durP2;ratioP2;P2;SDS_P1;SDS_P2;PMS_P1;PMS_P2;Temp;Humidity;BMP_temperature;BMP_pressure;BME280_temperature;BME280_humidity;BME280_pressure;Samples;Min_cycle;Max_cycle;Signal;HPM_P1;HPM_P2
2023/05/05 00:00:04;;;;;;;;;;;10.80;99.90;;;;;;5059283;28;19995;-74
2023/05/05 00:02:33;;;;;;;;;;;10.80;99.90;;;;;;5057952;28;20319;-75
2023/05/05 00:04:58;;;;;;;;;;;10.80;99.90;;;;;;5057114;28;19931;-75
2023/05/05 00:07:24;;;;;;;;;;;11.00;99.90;;;;;;5059276;28;19990;-74
2023/05/05 00:09:51;;;;;;;;;;;10.80;99.90;;;;;;5057295;28;21207;-75
2023/05/05 00:12:16;;;;;;;;;;;10.80;99.90;;;;;;5058826;28;19929;-75
2023/05/05 00:14:42;;;;;;;;;;;10.80;99.90;;;;;;5057929;28;19925;-74
2023/05/05 00:17:07;;;;;;;;;;;10.80;99.90;;;;;;5057113;28;19924;-75
2023/05/05 00:19:33;;;;;;;;;;;10.80;99.90;;;;;;5058938;28;19974;-75
2023/05/05 00:21:58;;;;;;;;;;;10.80;99.90;;;;;;5057866;28;19929;-75
2023/05/05 00:24:24;;;;;;;;;;;10.90;99.90;;;;;;5056953;28;19932;-75
2023/05/05 00:26:50;;;;;;;;;;;10.80;99.90;;;;;;5057585;28;19970;-75
2023/05/05 00:29:15;;;;;;;;;;;10.90;99.90;;;;;;5058993;28;20008;-75
2023/05/05 00:31:41;;;;;;;;;;;10.90;99.90;;;;;;5054444;28;19924;-75
2023/05/05 00:34:06;;;;;;;;;;;11.00;99.90;;;;;;5054113;28;19925;-74
2023/05/05 00:36:32;;;;;;;;;;;10.80;99.90;;;;;;5054871;28;19983;-74
2023/05/05 00:38:57;;;;;;;;;;;10.90;99.90;;;;;;5053730;28;20375;-75
2023/05/05 00:41:26;;;;;;;;;;;10.90;99.90;;;;;;5054538;28;19931;-74
2023/05/05 00:43:51;;;;;;;;;;;10.80;99.90;;;;;;5054441;28;19931;-74
2023/05/05 00:46:25;;;;;;;;;;;10.80;99.90;;;;;;5054260;28;20372;-74
2023/05/05 00:48:50;;;;;;;;;;;10.80;99.90;;;;;;5053972;28;19925;-74
2023/05/05 00:51:16;;;;;;;;;;;10.90;99.90;;;;;;5054244;28;19927;-74
2023/05/05 00:53:43;;;;;;;;;;;10.80;99.90;;;;;;5053518;28;19925;-74
2023/05/05 00:56:11;;;;;;;;;;;10.80;99.90;;;;;;5054426;28;20237;-74
2023/05/05 00:58:37;;;;;;;;;;;10.80;99.90;;;;;;5054745;28;20388;-74
2023/05/05 01:01:02;;;;;;;;;;;10.70;99.90;;;;;;5052446;28;19931;-74
2023/05/05 01:03:28;;;;;;;;;;;10.70;99.90;;;;;;5055572;28;19983;-74
2023/05/05 01:06:03;;;;;;;;;;;10.70;99.90;;;;;;5052652;28;19928;-73
2023/05/05 01:08:48;;;;;;;;;;;10.70;99.90;;;;;;5054095;28;19924;-74
2023/05/05 01:11:25;;;;;;;;;;;10.60;99.90;;;;;;5053736;28;20024;-74
2023/05/05 01:14:03;;;;;;;;;;;10.50;99.90;;;;;;5052771;28;19929;-74
2023/05/05 01:16:30;;;;;;;;;;;10.40;99.90;;;;;;5054307;28;19925;-74
2023/05/05 01:18:59;;;;;;;;;;;10.40;99.90;;;;;;5054439;28;20012;-74
2023/05/05 01:21:30;;;;;;;;;;;10.80;99.90;;;;;;5053880;28;19976;-74
2023/05/05 01:23:55;;;;;;;;;;;10.30;99.90;;;;;;5054653;28;19925;-74
2023/05/05 01:26:24;;;;;;;;;;;10.80;99.90;;;;;;5053486;28;19931;-74
2023/05/05 01:29:09;;;;;;;;;;;10.40;99.90;;;;;;5052800;28;19925;-75
2023/05/05 01:31:40;;;;;;;;;;;10.30;99.90;;;;;;5052805;28;20392;-74
2023/05/05 01:34:07;;;;;;;;;;;10.30;99.90;;;;;;5052907;28;20351;-74
2023/05/05 01:36:38;;;;;;;;;;;10.30;99.90;;;;;;5054271;28;19925;-75
2023/05/05 01:39:06;;;;;;;;;;;10.30;99.90;;;;;;5053183;28;19925;-74
2023/05/05 01:41:58;;;;;;;;;;;10.30;99.90;;;;;;5051920;28;19972;-75
2023/05/05 01:44:25;;;;;;;;;;;10.20;99.90;;;;;;5030310;28;20403;-75
2023/05/05 01:46:52;;;;;;;;;;;10.50;99.90;;;;;;5033099;28;19929;-75
2023/05/05 01:49:17;;;;;;;;;;;10.20;99.90;;;;;;5032372;28;20016;-75
2023/05/05 01:51:45;;;;;;;;;;;10.30;99.90;;;;;;5048889;28;19956;-75
2023/05/05 01:54:10;;;;;;;;;;;10.30;99.90;;;;;;5052914;28;20011;-75
2023/05/05 01:56:37;;;;;;;;;;;10.30;99.90;;;;;;5052226;28;19932;-75
2023/05/05 01:59:03;;;;;;;;;;;10.30;99.90;;;;;;5052838;28;19925;-75
2023/05/05 02:01:40;;;;;;;;;;;10.30;99.90;;;;;;5052349;28;20369;-75
2023/05/05 02:04:08;;;;;;;;;;;10.30;99.90;;;;;;5051342;28;19932;-75
2023/05/05 02:06:34;;;;;;;;;;;10.30;99.90;;;;;;5052513;28;19929;-75
2023/05/05 02:09:03;;;;;;;;;;;10.40;99.90;;;;;;5052607;28;20472;-75
2023/05/05 02:11:29;;;;;;;;;;;10.40;99.90;;;;;;5053466;28;19928;-75
2023/05/05 02:13:55;;;;;;;;;;;10.40;99.90;;;;;;5052222;28;19951;-74
2023/05/05 02:16:21;;;;;;;;;;;10.40;99.90;;;;;;5053606;28;20377;-75
2023/05/05 02:18:47;;;;;;;;;;;10.50;99.90;;;;;;5053677;28;20376;-74
2023/05/05 02:21:13;;;;;;;;;;;10.60;99.90;;;;;;5053455;28;20008;-75
2023/05/05 02:23:39;;;;;;;;;;;10.60;99.90;;;;;;5053179;28;19986;-75
2023/05/05 02:26:06;;;;;;;;;;;10.70;99.90;;;;;;5052370;28;20013;-75
2023/05/05 02:28:47;;;;;;;;;;;10.70;99.90;;;;;;5052002;28;19925;-75
2023/05/05 02:31:15;;;;;;;;;;;10.70;99.90;;;;;;5051423;28;20005;-75
2023/05/05 02:33:41;;;;;;;;;;;10.70;99.90;;;;;;5052354;28;19935;-75
2023/05/05 02:36:10;;;;;;;;;;;10.70;99.90;;;;;;5051984;28;19925;-74
2023/05/05 02:38:39;;;;;;;;;;;10.70;99.90;;;;;;5052143;28;20400;-75
2023/05/05 02:41:06;;;;;;;;;;;10.90;99.90;;;;;;5051824;28;19986;-75
2023/05/05 02:43:32;;;;;;;;;;;10.70;99.90;;;;;;5053442;28;19932;-75
2023/05/05 02:45:58;;;;;;;;;;;11.00;99.90;;;;;;5052091;28;20019;-75
2023/05/05 02:48:23;;;;;;;;;;;10.70;99.90;;;;;;5052418;28;20165;-75
2023/05/05 02:50:49;;;;;;;;;;;10.70;99.90;;;;;;5053185;28;19932;-75
2023/05/05 02:53:15;;;;;;;;;;;10.70;99.90;;;;;;5050475;28;20361;-75
2023/05/05 02:55:46;;;;;;;;;;;10.70;99.90;;;;;;5051182;28;19971;-75
2023/05/05 02:58:18;;;;;;;;;;;10.80;99.90;;;;;;5051962;28;19924;-74
2023/05/05 03:00:43;;;;;;;;;;;10.80;99.90;;;;;;5052285;28;19994;-75
2023/05/05 03:03:17;;;;;;;;;;;10.80;99.90;;;;;;5051390;28;19925;-75
2023/05/05 03:05:46;;;;;;;;;;;10.80;99.90;;;;;;5052617;28;20350;-75
2023/05/05 03:08:28;;;;;;;;;;;11.40;99.90;;;;;;5051436;28;20031;-75
2023/05/05 03:11:05;;;;;;;;;;;11.00;99.90;;;;;;5051099;28;19929;-74
2023/05/05 03:13:33;;;;;;;;;;;11.00;99.90;;;;;;5052056;28;20028;-75
2023/05/05 03:16:03;;;;;;;;;;;10.90;99.90;;;;;;5052417;28;20016;-74
2023/05/05 03:18:30;;;;;;;;;;;11.00;99.90;;;;;;5052698;28;20447;-75
2023/05/05 03:20:55;;;;;;;;;;;11.00;99.90;;;;;;5050373;28;20387;-75
2023/05/05 03:23:21;;;;;;;;;;;10.90;99.90;;;;;;5051777;28;19924;-75
2023/05/05 03:25:47;;;;;;;;;;;10.90;99.90;;;;;;5051509;28;20024;-75
2023/05/05 03:28:13;;;;;;;;;;;10.90;99.90;;;;;;5050686;28;19932;-75
2023/05/05 03:30:39;;;;;;;;;;;10.80;99.90;;;;;;5053176;28;19924;-74
2023/05/05 03:33:05;;;;;;;;;;;10.70;99.90;;;;;;5051478;28;19978;-74
2023/05/05 03:35:31;;;;;;;;;;;10.60;99.90;;;;;;5051608;28;19929;-75
2023/05/05 03:37:56;;;;;;;;;;;10.50;99.90;;;;;;5051208;28;20002;-75
2023/05/05 03:40:22;;;;;;;;;;;10.40;99.90;;;;;;5051744;28;20369;-75
2023/05/05 03:42:47;;;;;;;;;;;10.40;99.90;;;;;;5051631;28;20542;-75
2023/05/05 03:45:13;;;;;;;;;;;10.30;99.90;;;;;;5051092;28;19947;-75
2023/05/05 03:47:38;;;;;;;;;;;10.30;99.90;;;;;;5051136;28;19924;-76
2023/05/05 03:50:05;;;;;;;;;;;10.50;99.90;;;;;;5049659;28;19939;-75
2023/05/05 03:52:31;;;;;;;;;;;10.30;99.90;;;;;;5050503;28;19925;-75
2023/05/05 03:54:56;;;;;;;;;;;10.30;99.90;;;;;;5050793;28;19925;-75
2023/05/05 03:57:22;;;;;;;;;;;10.40;99.90;;;;;;5051525;28;20380;-75
2023/05/05 03:59:47;;;;;;;;;;;10.30;99.90;;;;;;5052537;28;19931;-76
2023/05/05 04:02:13;;;;;;;;;;;10.40;99.90;;;;;;5050060;28;19929;-73
2023/05/05 04:04:38;;;;;;;;;;;10.50;99.90;;;;;;5051235;28;19932;-73
2023/05/05 04:07:04;;;;;;;;;;;10.30;99.90;;;;;;5053160;28;19925;-74
2023/05/05 04:09:30;;;;;;;;;;;10.30;99.90;;;;;;5055608;28;19925;-73
2023/05/05 04:11:55;;;;;;;;;;;10.30;99.90;;;;;;5054467;28;20288;-73
2023/05/05 04:14:21;;;;;;;;;;;10.20;99.90;;;;;;5054268;28;19924;-74
2023/05/05 04:16:47;;;;;;;;;;;10.20;99.90;;;;;;5053934;28;20258;-74
2023/05/05 04:19:12;;;;;;;;;;;10.10;99.90;;;;;;5054263;28;19924;-74
2023/05/05 04:21:38;;;;;;;;;;;10.10;99.90;;;;;;5054973;28;19929;-74
2023/05/05 04:24:03;;;;;;;;;;;10.10;99.90;;;;;;5054673;28;19927;-74
2023/05/05 04:26:29;;;;;;;;;;;10.00;99.90;;;;;;5054296;28;19932;-74
2023/05/05 04:28:54;;;;;;;;;;;10.00;99.90;;;;;;5054179;28;20008;-74
2023/05/05 04:31:20;;;;;;;;;;;10.00;99.90;;;;;;5055320;28;19991;-74
2023/05/05 04:33:46;;;;;;;;;;;10.00;99.90;;;;;;5055315;28;19929;-73
2023/05/05 04:36:11;;;;;;;;;;;10.40;99.90;;;;;;5055455;28;19925;-74
2023/05/05 04:38:37;;;;;;;;;;;9.90;99.90;;;;;;5054934;28;19925;-74
2023/05/05 04:41:05;;;;;;;;;;;9.90;99.90;;;;;;5054226;28;19925;-74
2023/05/05 04:43:31;;;;;;;;;;;9.90;99.90;;;;;;5055402;28;19921;-74
2023/05/05 04:45:56;;;;;;;;;;;9.90;99.90;;;;;;5053086;28;19978;-74
2023/05/05 04:48:22;;;;;;;;;;;9.90;99.90;;;;;;5054032;28;19964;-73
2023/05/05 04:50:47;;;;;;;;;;;9.90;99.90;;;;;;5055802;28;19932;-74
2023/05/05 04:53:13;;;;;;;;;;;9.90;99.90;;;;;;5053946;28;19921;-74
2023/05/05 04:55:39;;;;;;;;;;;9.90;99.90;;;;;;5053597;28;19974;-74
2023/05/05 04:58:04;;;;;;;;;;;9.90;99.90;;;;;;5055025;28;19929;-74
2023/05/05 05:00:30;;;;;;;;;;;10.30;99.90;;;;;;5053512;28;20041;-74
2023/05/05 05:02:55;;;;;;;;;;;10.00;99.90;;;;;;5052767;28;20059;-73
2023/05/05 05:05:21;;;;;;;;;;;10.50;99.90;;;;;;5054708;28;20297;-74
2023/05/05 05:07:47;;;;;;;;;;;9.90;99.90;;;;;;5055028;28;19925;-74
2023/05/05 05:10:12;;;;;;;;;;;10.00;99.90;;;;;;5053771;28;19925;-74
2023/05/05 05:12:38;;;;;;;;;;;10.50;99.90;;;;;;5052348;28;20015;-74
2023/05/05 05:15:04;;;;;;;;;;;10.00;99.90;;;;;;5054731;28;19925;-74
2023/05/05 05:17:29;;;;;;;;;;;10.00;99.90;;;;;;5052797;28;19929;-75
2023/05/05 05:19:58;;;;;;;;;;;10.00;99.90;;;;;;5052206;28;20372;-75
2023/05/05 05:22:23;;;;;;;;;;;10.00;99.90;;;;;;5054276;28;20372;-75
2023/05/05 05:24:49;;;;;;;;;;;10.50;99.90;;;;;;5053198;28;19925;-74
2023/05/05 05:27:15;;;;;;;;;;;10.40;99.90;;;;;;5052547;28;19924;-75
2023/05/05 05:29:40;;;;;;;;;;;10.00;99.90;;;;;;5053431;28;20293;-76
2023/05/05 05:32:06;;;;;;;;;;;10.00;99.90;;;;;;5054237;28;19924;-75
2023/05/05 05:34:31;;;;;;;;;;;10.00;99.90;;;;;;5051980;28;19925;-76
2023/05/05 05:36:57;;;;;;;;;;;10.10;99.90;;;;;;5051455;28;19925;-75
2023/05/05 05:39:22;;;;;;;;;;;10.00;99.90;;;;;;5052806;28;20396;-77
2023/05/05 05:41:48;;;;;;;;;;;10.10;99.90;;;;;;5052543;28;19920;-77
2023/05/05 05:44:13;;;;;;;;;;;10.00;99.90;;;;;;5053868;28;20006;-77
2023/05/05 05:46:39;;;;;;;;;;;10.10;99.90;;;;;;5052604;28;20015;-78
2023/05/05 05:49:04;;;;;;;;;;;10.10;99.90;;;;;;5032236;28;19928;-76
2023/05/05 05:51:30;;;;;;;;;;;10.20;99.90;;;;;;5047722;28;19978;-75
2023/05/05 05:53:55;;;;;;;;;;;10.20;99.90;;;;;;5043845;28;20376;-74
2023/05/05 05:56:21;;;;;;;;;;;10.20;99.90;;;;;;5052011;28;20003;-77
2023/05/05 05:58:47;;;;;;;;;;;10.30;99.90;;;;;;5052531;28;20438;-80
2023/05/05 06:01:13;;;;;;;;;;;10.30;99.90;;;;;;5051147;28;19921;-80
2023/05/05 06:03:38;;;;;;;;;;;10.40;99.90;;;;;;5053202;28;19928;-77
2023/05/05 06:06:04;;;;;;;;;;;10.40;99.90;;;;;;5053150;28;20513;-82
2023/05/05 06:08:30;;;;;;;;;;;10.50;99.90;;;;;;5051614;28;19931;-77
2023/05/05 06:10:55;;;;;;;;;;;10.50;99.90;;;;;;5052638;28;19925;-78
2023/05/05 06:13:21;;;;;;;;;;;10.70;99.90;;;;;;5052396;28;20373;-80
2023/05/05 06:15:46;;;;;;;;;;;10.80;99.90;;;;;;5051400;28;19983;-78
2023/05/05 06:18:12;;;;;;;;;;;10.90;99.90;;;;;;5053299;28;20333;-83
2023/05/05 06:20:37;;;;;;;;;;;11.10;99.90;;;;;;5052365;28;19924;-82
2023/05/05 06:23:03;;;;;;;;;;;11.30;99.90;;;;;;5051230;28;19932;-84
2023/05/05 06:25:28;;;;;;;;;;;11.20;99.90;;;;;;5052026;28;20364;-78
2023/05/05 06:27:54;;;;;;;;;;;11.30;99.90;;;;;;5053153;28;20448;-79
2023/05/05 06:30:20;;;;;;;;;;;11.40;99.90;;;;;;5051695;28;19978;-81
2023/05/05 06:32:46;;;;;;;;;;;11.40;99.90;;;;;;5053732;28;19970;-78
2023/05/05 06:35:11;;;;;;;;;;;11.60;99.90;;;;;;5050912;28;19994;-85
2023/05/05 06:37:37;;;;;;;;;;;11.60;99.90;;;;;;5049851;28;19932;-80
2023/05/05 06:40:03;;;;;;;;;;;11.70;99.90;;;;;;5052837;28;19927;-79
2023/05/05 06:42:29;;;;;;;;;;;11.80;99.90;;;;;;5051671;28;20416;-81
2023/05/05 06:44:55;;;;;;;;;;;11.90;99.90;;;;;;5050324;28;20411;-80
2023/05/05 06:47:20;;;;;;;;;;;12.00;99.90;;;;;;5052891;28;19925;-81
2023/05/05 06:49:46;;;;;;;;;;;12.10;99.90;;;;;;5052283;28;19921;-80
2023/05/05 06:52:12;;;;;;;;;;;12.20;99.90;;;;;;5049591;28;19925;-74
2023/05/05 06:54:37;;;;;;;;;;;12.20;99.90;;;;;;5050861;28;19932;-79
2023/05/05 06:57:03;;;;;;;;;;;12.30;99.90;;;;;;5051023;28;19931;-78
2023/05/05 06:59:29;;;;;;;;;;;12.40;99.90;;;;;;5051905;28;20020;-77
2023/05/05 07:01:54;;;;;;;;;;;12.60;99.90;;;;;;5049631;28;19936;-80
2023/05/05 07:04:20;;;;;;;;;;;12.70;99.90;;;;;;5051117;28;20440;-80
2023/05/05 07:06:45;;;;;;;;;;;12.80;99.90;;;;;;5050387;28;20304;-80
2023/05/05 07:09:11;;;;;;;;;;;13.00;99.90;;;;;;5050419;28;19920;-79
2023/05/05 07:11:37;;;;;;;;;;;13.10;99.90;;;;;;5052109;28;19925;-81
2023/05/05 07:14:02;;;;;;;;;;;13.30;99.90;;;;;;5051191;28;20427;-81
2023/05/05 07:16:28;;;;;;;;;;;13.70;99.90;;;;;;5052543;28;19925;-76
2023/05/05 07:18:53;;;;;;;;;;;13.80;99.90;;;;;;5051336;28;19924;-81
2023/05/05 07:21:19;;;;;;;;;;;14.10;99.90;;;;;;5050468;28;19925;-80
2023/05/05 07:23:46;;;;;;;;;;;14.40;99.90;;;;;;5052380;28;19937;-81
2023/05/05 07:26:12;;;;;;;;;;;14.70;99.90;;;;;;5051383;28;19929;-79
2023/05/05 07:28:38;;;;;;;;;;;15.10;99.90;;;;;;5050077;28;19927;-79
2023/05/05 07:31:03;;;;;;;;;;;15.30;99.90;;;;;;5051447;28;20292;-77
2023/05/05 07:33:29;;;;;;;;;;;15.20;99.90;;;;;;5050496;28;20271;-80
2023/05/05 07:35:55;;;;;;;;;;;15.20;99.90;;;;;;5051969;28;19975;-78
2023/05/05 07:38:20;;;;;;;;;;;15.10;99.90;;;;;;5051158;28;20012;-77
2023/05/05 07:40:46;;;;;;;;;;;15.20;99.90;;;;;;5051889;28;20365;-77
2023/05/05 07:43:11;;;;;;;;;;;15.20;99.90;;;;;;5055875;28;19925;-78
2023/05/05 07:45:37;;;;;;;;;;;15.20;99.90;;;;;;5055856;28;19932;-76
2023/05/05 07:48:02;;;;;;;;;;;15.20;99.90;;;;;;5054851;28;19920;-77
2023/05/05 07:50:28;;;;;;;;;;;15.40;99.90;;;;;;5056228;28;19925;-77
2023/05/05 07:52:53;;;;;;;;;;;15.50;99.90;;;;;;5055632;28;19936;-76
2023/05/05 07:55:19;;;;;;;;;;;15.80;99.90;;;;;;5047974;28;19924;-75
2023/05/05 07:57:44;;;;;;;;;;;16.10;99.90;;;;;;5034939;28;20341;-75
2023/05/05 08:00:12;;;;;;;;;;;16.30;99.90;;;;;;5051090;28;19929;-75
2023/05/05 08:02:37;;;;;;;;;;;16.50;99.90;;;;;;5052392;28;19925;-75
2023/05/05 08:05:03;;;;;;;;;;;16.70;99.90;;;;;;5046039;28;20443;-73
2023/05/05 08:07:29;;;;;;;;;;;16.60;99.90;;;;;;5054001;28;19936;-74
2023/05/05 08:10:03;;;;;;;;;;;16.60;99.90;;;;;;5036245;28;20031;-74
2023/05/05 08:12:29;;;;;;;;;;;16.50;99.90;;;;;;5053596;28;20395;-74
2023/05/05 08:14:54;;;;;;;;;;;16.40;99.90;;;;;;5040108;28;19929;-74
2023/05/05 08:17:20;;;;;;;;;;;16.50;99.90;;;;;;5039607;28;20296;-74
2023/05/05 08:19:45;;;;;;;;;;;16.90;99.90;;;;;;5052968;28;19928;-74
2023/05/05 08:22:11;;;;;;;;;;;17.10;99.90;;;;;;5052428;28;19931;-74
2023/05/05 08:24:36;;;;;;;;;;;17.10;99.90;;;;;;5046091;28;19932;-74
2023/05/05 08:27:02;;;;;;;;;;;17.00;99.90;;;;;;5046129;28;19925;-75
2023/05/05 08:29:27;;;;;;;;;;;16.90;99.90;;;;;;5047301;28;19974;-74
2023/05/05 08:31:53;;;;;;;;;;;17.20;99.90;;;;;;5037649;28;20305;-75
2023/05/05 08:34:18;;;;;;;;;;;17.60;99.90;;;;;;5049550;28;19932;-74
2023/05/05 08:36:44;;;;;;;;;;;17.90;99.90;;;;;;5045190;28;19969;-74
2023/05/05 08:39:10;;;;;;;;;;;17.80;99.90;;;;;;5053490;28;19928;-73
2023/05/05 08:41:35;;;;;;;;;;;18.00;99.90;;;;;;5052331;28;19971;-74
2023/05/05 08:44:01;;;;;;;;;;;18.20;99.90;;;;;;5050821;28;20376;-74
2023/05/05 08:46:27;;;;;;;;;;;18.30;99.90;;;;;;5040728;28;19925;-74
2023/05/05 08:48:53;;;;;;;;;;;18.40;99.90;;;;;;5042828;28;19925;-74
2023/05/05 08:51:19;;;;;;;;;;;18.60;99.90;;;;;;5044988;28;20396;-75
2023/05/05 08:54:04;;;;;;;;;;;18.70;99.90;;;;;;5052841;28;19982;-74
2023/05/05 08:56:32;;;;;;;;;;;18.60;99.90;;;;;;5039572;28;19929;-75
2023/05/05 08:58:58;;;;;;;;;;;18.60;99.90;;;;;;5053081;28;20015;-72
2023/05/05 09:01:23;;;;;;;;;;;18.70;99.90;;;;;;5038840;28;20495;-72
2023/05/05 09:03:50;;;;;;;;;;;19.40;99.90;;;;;;5065207;28;19929;-71
2023/05/05 09:06:16;;;;;;;;;;;19.00;99.90;;;;;;5039096;28;20308;-72
2023/05/05 09:08:41;;;;;;;;;;;19.20;99.90;;;;;;5052218;28;19936;-72
2023/05/05 09:11:07;;;;;;;;;;;19.20;99.90;;;;;;5040613;28;19929;-72
2023/05/05 09:13:32;;;;;;;;;;;19.60;99.90;;;;;;5047397;28;19925;-71
2023/05/05 09:15:58;;;;;;;;;;;19.70;99.90;;;;;;5035479;28;20032;-74
2023/05/05 09:18:24;;;;;;;;;;;20.00;99.90;;;;;;5052367;28;19925;-74
2023/05/05 09:20:49;;;;;;;;;;;20.30;99.90;;;;;;5043176;28;19932;-72
2023/05/05 09:23:16;;;;;;;;;;;20.50;99.90;;;;;;5045536;28;19936;-73
2023/05/05 09:25:45;;;;;;;;;;;20.40;99.90;;;;;;5037137;28;19933;-72
2023/05/05 09:28:12;;;;;;;;;;;20.50;99.90;;;;;;5051631;28;19933;-75
2023/05/05 09:30:38;;;;;;;;;;;20.70;99.90;;;;;;5053402;28;20015;-73
2023/05/05 09:33:04;;;;;;;;;;;20.70;99.90;;;;;;5043881;28;19940;-72
2023/05/05 09:35:46;;;;;;;;;;;21.10;99.90;;;;;;5046334;28;19933;-72
2023/05/05 09:38:12;;;;;;;;;;;21.10;99.90;;;;;;5044293;28;19976;-71
2023/05/05 09:40:45;;;;;;;;;;;21.10;99.90;;;;;;5044933;28;19975;-71
2023/05/05 09:43:11;;;;;;;;;;;21.30;99.90;;;;;;5035165;28;19936;-71
2023/05/05 09:45:36;;;;;;;;;;;21.50;99.90;;;;;;5051526;28;19925;-71
2023/05/05 09:48:02;;;;;;;;;;;21.90;99.90;;;;;;5051518;28;19931;-72
2023/05/05 09:50:29;;;;;;;;;;;22.30;99.90;;;;;;5051700;28;19924;-71
2023/05/05 09:52:54;;;;;;;;;;;22.60;99.90;;;;;;5037340;28;19921;-71
2023/05/05 09:55:20;;;;;;;;;;;23.30;99.90;;;;;;5047432;28;19925;-72
2023/05/05 09:57:46;;;;;;;;;;;24.30;99.90;;;;;;5036830;28;19928;-71
2023/05/05 10:00:12;;;;;;;;;;;24.90;99.90;;;;;;5049030;28;19976;-72
2023/05/05 10:02:38;;;;;;;;;;;25.30;98.80;;;;;;5050610;28;20015;-73
2023/05/05 10:05:04;;;;;;;;;;;25.70;97.70;;;;;;5051600;28;19925;-72
2023/05/05 10:07:30;;;;;;;;;;;26.00;97.10;;;;;;5051938;28;19932;-73
2023/05/05 10:09:56;;;;;;;;;;;26.00;95.90;;;;;;5040464;28;19929;-73
2023/05/05 10:12:22;;;;;;;;;;;26.30;96.50;;;;;;5031720;28;20356;-73
2023/05/05 10:14:59;;;;;;;;;;;26.00;95.50;;;;;;5033526;28;19925;-74
2023/05/05 10:17:26;;;;;;;;;;;25.20;95.60;;;;;;5051811;28;19933;-73
2023/05/05 10:19:55;;;;;;;;;;;24.60;96.10;;;;;;5043251;28;19933;-74
2023/05/05 10:22:22;;;;;;;;;;;24.40;97.00;;;;;;5032556;28;19926;-72
2023/05/05 10:25:02;;;;;;;;;;;24.60;97.30;;;;;;5049279;28;19925;-74
2023/05/05 10:27:32;;;;;;;;;;;25.00;97.20;;;;;;5051733;28;19931;-75
2023/05/05 10:30:11;;;;;;;;;;;25.40;97.00;;;;;;5041194;28;19925;-76
2023/05/05 10:32:43;;;;;;;;;;;25.00;96.00;;;;;;5043250;28;19932;-77
2023/05/05 10:35:08;;;;;;;;;;;24.20;95.70;;;;;;5036099;28;20403;-83
2023/05/05 10:37:35;;;;;;;;;;;23.80;96.40;;;;;;5050376;28;19925;-82
2023/05/05 10:40:01;;;;;;;;;;;23.50;97.60;;;;;;5034797;28;19932;-79
2023/05/05 10:42:26;;;;;;;;;;;23.20;96.50;;;;;;5045016;28;20016;-80
2023/05/05 10:44:52;;;;;;;;;;;22.80;97.30;;;;;;5040826;28;19925;-82
2023/05/05 10:47:18;;;;;;;;;;;22.20;97.80;;;;;;5051638;28;19925;-84
2023/05/05 10:49:53;;;;;;;;;;;22.00;98.60;;;;;;5051964;28;19925;-83
2023/05/05 10:52:19;;;;;;;;;;;21.40;99.90;;;;;;5036167;28;20002;-78
2023/05/05 10:54:48;;;;;;;;;;;21.20;99.90;;;;;;5042477;28;20400;-76
2023/05/05 10:57:15;;;;;;;;;;;21.10;99.90;;;;;;5042862;28;20304;-78
2023/05/05 10:59:41;;;;;;;;;;;21.20;99.90;;;;;;5036166;28;19937;-76
2023/05/05 11:02:20;;;;;;;;;;;21.20;99.90;;;;;;5050684;28;19931;-77
2023/05/05 11:05:02;;;;;;;;;;;21.20;99.80;;;;;;5041199;28;20312;-78
2023/05/05 11:07:27;;;;;;;;;;;21.20;99.30;;;;;;5045328;28;19920;-76
2023/05/05 11:09:54;;;;;;;;;;;20.90;99.70;;;;;;5035360;28;19933;-75
2023/05/05 11:12:19;;;;;;;;;;;20.90;99.90;;;;;;5044966;28;19928;-74
2023/05/05 11:14:45;;;;;;;;;;;20.80;99.90;;;;;;5040145;28;19929;-74
2023/05/05 11:17:36;;;;;;;;;;;20.70;99.90;;;;;;5049446;28;20044;-74
2023/05/05 11:20:02;;;;;;;;;;;20.70;99.90;;;;;;5032713;28;19965;-74
2023/05/05 11:22:30;;;;;;;;;;;20.70;99.90;;;;;;5051035;28;19925;-74
2023/05/05 11:24:56;;;;;;;;;;;20.70;99.90;;;;;;5049882;28;20295;-76
2023/05/05 11:27:41;;;;;;;;;;;20.60;99.90;;;;;;5028511;28;20036;-75
2023/05/05 11:30:07;;;;;;;;;;;20.70;99.90;;;;;;5063012;28;19933;-74
2023/05/05 11:32:33;;;;;;;;;;;20.70;99.90;;;;;;5034337;28;19975;-76
2023/05/05 11:34:59;;;;;;;;;;;20.70;99.90;;;;;;5050218;28;19983;-78
2023/05/05 11:37:26;;;;;;;;;;;20.70;99.90;;;;;;5050724;28;19925;-77
2023/05/05 11:40:21;;;;;;;;;;;20.40;99.90;;;;;;5048073;28;19990;-76
2023/05/05 11:42:46;;;;;;;;;;;20.40;99.90;;;;;;5039850;28;20342;-76
2023/05/05 11:45:21;;;;;;;;;;;20.40;99.90;;;;;;5049507;28;19948;-76
2023/05/05 11:47:47;;;;;;;;;;;20.40;99.90;;;;;;5050223;28;19932;-76
2023/05/05 11:50:16;;;;;;;;;;;20.40;99.90;;;;;;5050840;28;19924;-76
2023/05/05 11:52:42;;;;;;;;;;;20.50;99.90;;;;;;5050745;28;19932;-76
2023/05/05 11:55:08;;;;;;;;;;;20.40;99.90;;;;;;5049589;28;19925;-76
2023/05/05 11:57:33;;;;;;;;;;;20.50;99.90;;;;;;5052456;28;19932;-76
2023/05/05 12:00:00;;;;;;;;;;;20.30;99.90;;;;;;5051793;28;20003;-76
2023/05/05 12:02:29;;;;;;;;;;;20.30;99.90;;;;;;5051184;28;19973;-76
2023/05/05 12:04:57;;;;;;;;;;;20.30;99.90;;;;;;5050636;28;19932;-76
2023/05/05 12:07:24;;;;;;;;;;;20.10;99.90;;;;;;5050151;28;19925;-76
2023/05/05 12:09:50;;;;;;;;;;;20.00;99.90;;;;;;5050971;28;20372;-76
2023/05/05 12:12:16;;;;;;;;;;;19.70;99.90;;;;;;5051438;28;19935;-75
2023/05/05 12:14:45;;;;;;;;;;;19.50;99.90;;;;;;5050284;28;19932;-75
2023/05/05 12:17:11;;;;;;;;;;;19.30;99.90;;;;;;5050321;28;19940;-76
2023/05/05 12:19:43;;;;;;;;;;;19.20;99.90;;;;;;5050844;28;19947;-76
2023/05/05 12:22:08;;;;;;;;;;;19.10;99.90;;;;;;5051215;28;19932;-76
2023/05/05 12:24:34;;;;;;;;;;;19.00;99.90;;;;;;5051795;28;19941;-76
2023/05/05 12:27:06;;;;;;;;;;;18.90;99.90;;;;;;5051699;28;19929;-76
2023/05/05 12:29:32;;;;;;;;;;;19.00;99.90;;;;;;5054017;28;20288;-75
2023/05/05 12:31:59;;;;;;;;;;;19.00;99.90;;;;;;5054115;28;19924;-76
2023/05/05 12:34:25;;;;;;;;;;;18.90;99.90;;;;;;5054178;28;19925;-76
2023/05/05 12:36:50;;;;;;;;;;;18.90;99.90;;;;;;5053415;28;19932;-76
2023/05/05 12:39:16;;;;;;;;;;;18.60;99.90;;;;;;5054312;28;19920;-76
2023/05/05 12:41:41;;;;;;;;;;;18.70;99.90;;;;;;5054614;28;20384;-76
2023/05/05 12:44:07;;;;;;;;;;;18.60;99.90;;;;;;5054377;28;19925;-76
2023/05/05 12:46:45;;;;;;;;;;;18.60;99.90;;;;;;5054373;28;19920;-75
2023/05/05 12:49:11;;;;;;;;;;;18.50;99.90;;;;;;5053795;28;20296;-76
2023/05/05 12:51:36;;;;;;;;;;;18.40;99.90;;;;;;5053686;28;19974;-76
2023/05/05 12:54:05;;;;;;;;;;;18.30;99.90;;;;;;5053702;28;20421;-76
2023/05/05 12:56:34;;;;;;;;;;;18.30;99.90;;;;;;5053303;28;19925;-76
2023/05/05 12:59:01;;;;;;;;;;;18.30;99.90;;;;;;5054327;28;19925;-76
2023/05/05 13:01:27;;;;;;;;;;;18.20;99.90;;;;;;5054138;28;19925;-76
2023/05/05 13:04:22;;;;;;;;;;;18.10;99.90;;;;;;5054205;28;20414;-76
2023/05/05 13:06:48;;;;;;;;;;;18.10;99.90;;;;;;5041165;28;19978;-76
2023/05/05 13:09:23;;;;;;;;;;;17.80;99.90;;;;;;5054649;28;19979;-76
2023/05/05 13:11:49;;;;;;;;;;;17.70;99.90;;;;;;5054473;28;19947;-76
2023/05/05 13:14:14;;;;;;;;;;;17.60;99.90;;;;;;5054102;28;20384;-76
2023/05/05 13:16:40;;;;;;;;;;;17.50;99.90;;;;;;5053635;28;19970;-76
2023/05/05 13:19:05;;;;;;;;;;;17.40;99.90;;;;;;5052872;28;19982;-76
2023/05/05 13:21:31;;;;;;;;;;;17.30;99.90;;;;;;5054984;28;19928;-76
2023/05/05 13:23:57;;;;;;;;;;;17.20;99.90;;;;;;5053231;28;19929;-76
2023/05/05 13:26:23;;;;;;;;;;;17.00;99.90;;;;;;5053049;28;19920;-76
2023/05/05 13:28:49;;;;;;;;;;;16.80;99.90;;;;;;5052658;28;19924;-76
2023/05/05 13:31:15;;;;;;;;;;;16.70;99.90;;;;;;5053315;28;20036;-76
2023/05/05 13:33:40;;;;;;;;;;;16.60;99.90;;;;;;5052434;28;20439;-76
2023/05/05 13:36:06;;;;;;;;;;;16.60;99.90;;;;;;5054168;28;19970;-76
2023/05/05 13:38:31;;;;;;;;;;;16.50;99.90;;;;;;5053462;28;19925;-76
2023/05/05 13:40:58;;;;;;;;;;;16.50;99.90;;;;;;5051964;28;20266;-76
2023/05/05 13:43:23;;;;;;;;;;;16.40;99.90;;;;;;5052365;28;19932;-76
2023/05/05 13:45:49;;;;;;;;;;;16.30;99.90;;;;;;5052623;28;19925;-76
2023/05/05 13:48:14;;;;;;;;;;;16.20;99.90;;;;;;5052833;28;20625;-76
2023/05/05 13:50:40;;;;;;;;;;;16.30;99.90;;;;;;5054043;28;20400;-76
2023/05/05 13:53:06;;;;;;;;;;;16.20;99.90;;;;;;5052086;28;20298;-76
2023/05/05 13:55:31;;;;;;;;;;;16.10;99.90;;;;;;5054276;28;19924;-76
2023/05/05 13:57:57;;;;;;;;;;;16.10;99.90;;;;;;5052458;28;19928;-76
2023/05/05 14:00:22;;;;;;;;;;;16.00;99.90;;;;;;5052972;28;19932;-76
2023/05/05 14:02:48;;;;;;;;;;;16.00;99.90;;;;;;5053729;28;19925;-76
2023/05/05 14:05:13;;;;;;;;;;;15.90;99.90;;;;;;5053622;28;19958;-76
2023/05/05 14:07:39;;;;;;;;;;;15.90;99.90;;;;;;5053138;28;19932;-76
2023/05/05 14:10:05;;;;;;;;;;;16.20;99.90;;;;;;5052036;28;19925;-76
2023/05/05 14:12:31;;;;;;;;;;;15.90;99.90;;;;;;5033817;28;19933;-76
2023/05/05 14:14:57;;;;;;;;;;;16.00;99.90;;;;;;5044005;28;19925;-76
2023/05/05 14:17:23;;;;;;;;;;;15.80;99.90;;;;;;5052553;28;19924;-76